createdAt,value
2019-03-18T00:00:50.880Z,18.33
2019-03-18T00:01:50.890Z,18.33
2019-03-18T00:02:50.860Z,18.33
2019-03-18T00:03:50.848Z,18.33
2019-03-18T00:04:50.852Z,18.32
2019-03-18T00:05:50.828Z,18.32
2019-03-18T00:06:50.830Z,18.32
2019-03-18T00:07:50.823Z,18.30
2019-03-18T00:08:50.789Z,18.33
2019-03-18T00:09:50.784Z,18.32
2019-03-18T00:10:50.767Z,18.32
2019-03-18T00:11:50.763Z,18.32
2019-03-18T00:12:52.096Z,18.33
2019-03-18T00:13:50.739Z,18.32
2019-03-18T00:15:00.751Z,18.32
2019-03-18T00:15:51.717Z,18.32
2019-03-18T00:16:50.706Z,18.30
2019-03-18T00:17:50.705Z,18.30
2019-03-18T00:18:50.705Z,18.32
2019-03-18T00:19:50.675Z,18.32
2019-03-18T00:20:50.661Z,18.30
2019-03-18T00:21:50.648Z,18.32
2019-03-18T00:22:50.640Z,18.30
2019-03-18T00:23:50.915Z,18.32
2019-03-18T00:24:50.623Z,18.30
2019-03-18T00:25:50.609Z,18.32
2019-03-18T00:26:50.597Z,18.32
2019-03-18T00:27:50.603Z,18.32
2019-03-18T00:28:50.579Z,18.30
2019-03-18T00:29:50.600Z,18.30
2019-03-18T00:30:50.552Z,18.30
2019-03-18T00:31:50.547Z,18.30
2019-03-18T00:32:50.532Z,18.32
2019-03-18T00:33:50.520Z,18.32
2019-03-18T00:34:50.516Z,18.30
2019-03-18T00:35:50.521Z,18.32
2019-03-18T00:36:50.508Z,18.30
2019-03-18T00:37:50.477Z,18.30
2019-03-18T00:38:50.469Z,18.30
2019-03-18T00:39:50.456Z,18.32
2019-03-18T00:40:50.453Z,18.32
2019-03-18T00:41:50.451Z,18.30
2019-03-18T00:42:50.424Z,18.30
2019-03-18T00:43:50.441Z,18.30
2019-03-18T00:44:50.404Z,18.30
2019-03-18T00:45:50.396Z,18.30
2019-03-18T00:46:50.418Z,18.30
2019-03-18T00:47:50.373Z,18.29
2019-03-18T00:48:50.363Z,18.30
2019-03-18T00:49:50.351Z,18.30
2019-03-18T00:50:50.360Z,18.30
2019-03-18T00:51:50.324Z,18.32
2019-03-18T00:52:50.420Z,18.29
2019-03-18T00:53:50.312Z,18.30
2019-03-18T00:54:50.296Z,18.30
2019-03-18T00:55:51.774Z,18.30
2019-03-18T00:56:50.271Z,18.30
2019-03-18T00:57:50.261Z,18.29
2019-03-18T00:58:50.270Z,18.30
2019-03-18T00:59:50.275Z,18.30
2019-03-18T01:00:50.252Z,18.29
2019-03-18T01:01:50.224Z,18.30
2019-03-18T01:02:50.227Z,18.29
2019-03-18T01:03:50.201Z,18.27
2019-03-18T01:04:50.189Z,18.30
2019-03-18T01:05:50.200Z,18.29
2019-03-18T01:06:50.169Z,18.29
2019-03-18T01:07:50.157Z,18.30
2019-03-18T01:08:50.143Z,18.29
2019-03-18T01:09:50.136Z,18.30
2019-03-18T01:10:50.126Z,18.29
2019-03-18T01:11:50.129Z,18.29
2019-03-18T01:12:50.105Z,18.30
2019-03-18T01:13:50.103Z,18.29
2019-03-18T01:14:50.081Z,18.29
2019-03-18T01:15:50.071Z,18.29
2019-03-18T01:16:50.090Z,18.29
2019-03-18T01:17:50.052Z,18.29
2019-03-18T01:18:50.034Z,18.29
2019-03-18T01:19:50.027Z,18.30
2019-03-18T01:20:50.019Z,18.30
2019-03-18T01:21:50.010Z,18.29
2019-03-18T01:22:50.018Z,18.27
2019-03-18T01:23:49.996Z,18.30
2019-03-18T01:24:49.975Z,18.29
2019-03-18T01:25:49.967Z,18.29
2019-03-18T01:26:49.948Z,18.27
2019-03-18T01:27:49.944Z,18.29
2019-03-18T01:28:49.961Z,18.27
2019-03-18T01:29:49.924Z,18.29
2019-03-18T01:30:49.908Z,18.27
2019-03-18T01:31:49.904Z,18.29
2019-03-18T01:32:49.887Z,18.29
2019-03-18T01:33:49.876Z,18.29
2019-03-18T01:34:49.882Z,18.27
2019-03-18T01:35:49.855Z,18.27
2019-03-18T01:36:49.841Z,18.26
2019-03-18T01:37:49.832Z,18.27
2019-03-18T01:38:49.822Z,18.27
2019-03-18T01:39:49.838Z,18.26
2019-03-18T01:40:49.806Z,18.27
2019-03-18T01:41:49.790Z,18.27
2019-03-18T01:42:49.780Z,18.26
2019-03-18T01:43:49.769Z,18.26
2019-03-18T01:44:49.794Z,18.26
2019-03-18T01:45:49.744Z,18.27
2019-03-18T01:46:49.755Z,18.26
2019-03-18T01:47:49.725Z,18.27
2019-03-18T01:48:49.718Z,18.27
2019-03-18T01:49:49.707Z,18.27
2019-03-18T01:50:49.743Z,18.27
2019-03-18T01:51:49.681Z,18.27
2019-03-18T01:52:49.671Z,18.26
2019-03-18T01:53:49.663Z,18.27
2019-03-18T01:54:49.650Z,18.25
2019-03-18T01:55:49.644Z,18.26
2019-03-18T01:56:49.676Z,18.27
2019-03-18T01:57:49.618Z,18.26
2019-03-18T01:58:49.609Z,18.26
2019-03-18T01:59:49.601Z,18.26
2019-03-18T02:00:49.590Z,18.26
2019-03-18T02:01:49.873Z,18.26
2019-03-18T02:02:51.771Z,18.25
2019-03-18T02:03:49.552Z,18.27
2019-03-18T02:04:49.542Z,18.26
2019-03-18T02:05:49.536Z,18.26
2019-03-18T02:06:49.522Z,18.26
2019-03-18T02:07:49.541Z,18.26
2019-03-18T02:08:49.507Z,18.25
2019-03-18T02:09:49.497Z,18.26
2019-03-18T02:10:49.477Z,18.27
2019-03-18T02:11:49.463Z,18.26
2019-03-18T02:12:49.484Z,18.26
2019-03-18T02:13:49.446Z,18.26
2019-03-18T02:14:49.731Z,18.26
2019-03-18T02:15:53.682Z,18.26
2019-03-18T02:16:49.414Z,18.26
2019-03-18T02:17:49.404Z,18.25
2019-03-18T02:18:49.402Z,18.25
2019-03-18T02:19:49.394Z,18.25
2019-03-18T02:20:49.402Z,18.23
2019-03-18T02:21:49.363Z,18.25
2019-03-18T02:22:49.346Z,18.25
2019-03-18T02:23:49.337Z,18.25
2019-03-18T02:24:49.332Z,18.25
2019-03-18T02:25:49.320Z,18.25
2019-03-18T02:26:49.334Z,18.25
2019-03-18T02:27:49.293Z,18.25
2019-03-18T02:28:49.287Z,18.25
2019-03-18T02:29:49.319Z,18.25
2019-03-18T02:30:49.264Z,18.26
2019-03-18T02:31:49.256Z,18.25
2019-03-18T02:32:49.238Z,18.25
2019-03-18T02:33:49.235Z,18.25
2019-03-18T02:34:49.247Z,18.26
2019-03-18T02:35:49.214Z,18.26
2019-03-18T02:36:49.208Z,18.25
2019-03-18T02:37:49.236Z,18.25
2019-03-18T02:38:49.185Z,18.25
2019-03-18T02:39:49.166Z,18.26
2019-03-18T02:40:49.152Z,18.23
2019-03-18T02:41:49.154Z,18.25
2019-03-18T02:42:49.158Z,18.25
2019-03-18T02:43:49.128Z,18.25
2019-03-18T02:44:49.113Z,18.25
2019-03-18T02:45:49.101Z,18.25
2019-03-18T02:46:49.096Z,18.26
2019-03-18T02:47:49.088Z,18.25
2019-03-18T02:48:49.305Z,18.26
2019-03-18T02:49:49.057Z,18.25
2019-03-18T02:50:49.052Z,18.25
2019-03-18T02:51:52.723Z,18.25
2019-03-18T02:52:49.046Z,18.25
2019-03-18T02:53:49.044Z,18.23
2019-03-18T02:54:49.305Z,18.23
2019-03-18T02:55:48.998Z,18.23
2019-03-18T02:56:48.986Z,18.23
2019-03-18T02:57:48.982Z,18.23
2019-03-18T02:58:48.964Z,18.23
2019-03-18T02:59:48.951Z,18.25
2019-03-18T03:00:48.981Z,18.25
2019-03-18T03:01:48.936Z,18.23
2019-03-18T03:02:48.920Z,18.25
2019-03-18T03:03:48.915Z,18.23
2019-03-18T03:04:48.907Z,18.25
2019-03-18T03:05:48.953Z,18.25
2019-03-18T03:06:48.876Z,18.21
2019-03-18T03:07:48.871Z,18.25
2019-03-18T03:08:48.851Z,18.25
2019-03-18T03:09:48.843Z,18.23
2019-03-18T03:10:48.838Z,18.25
2019-03-18T03:11:49.105Z,18.25
2019-03-18T03:12:48.809Z,18.23
2019-03-18T03:13:48.799Z,18.25
2019-03-18T03:14:48.788Z,18.25
2019-03-18T03:15:48.787Z,18.23
2019-03-18T03:16:48.769Z,18.23
2019-03-18T03:17:48.801Z,18.23
2019-03-18T03:18:48.751Z,18.23
2019-03-18T03:19:48.741Z,18.25
2019-03-18T03:20:48.728Z,18.23
2019-03-18T03:21:48.729Z,18.23
2019-03-18T03:22:48.711Z,18.23
2019-03-18T03:23:48.718Z,18.25
2019-03-18T03:24:48.727Z,18.23
2019-03-18T03:25:48.671Z,18.23
2019-03-18T03:26:48.660Z,18.23
2019-03-18T03:27:48.653Z,18.23
2019-03-18T03:28:48.643Z,18.21
2019-03-18T03:29:48.653Z,18.21
2019-03-18T03:30:48.627Z,18.23
2019-03-18T03:31:48.608Z,18.23
2019-03-18T03:32:48.643Z,18.23
2019-03-18T03:33:48.586Z,18.23
2019-03-18T03:34:48.577Z,18.23
2019-03-18T03:35:48.573Z,18.20
2019-03-18T03:36:48.551Z,18.21
2019-03-18T03:37:48.538Z,18.21
2019-03-18T03:38:48.575Z,18.23
2019-03-18T03:39:48.532Z,18.23
2019-03-18T03:40:48.508Z,18.21
2019-03-18T03:41:48.503Z,18.25
2019-03-18T03:42:48.489Z,18.21
2019-03-18T03:43:48.514Z,18.21
2019-03-18T03:44:48.466Z,18.23
2019-03-18T03:45:48.453Z,18.21
2019-03-18T03:46:48.448Z,18.21
2019-03-18T03:47:48.433Z,18.21
2019-03-18T03:48:48.451Z,18.21
2019-03-18T03:49:48.443Z,18.23
2019-03-18T03:50:48.403Z,18.21
2019-03-18T03:51:48.392Z,18.21
2019-03-18T03:52:48.379Z,18.21
2019-03-18T03:53:48.371Z,18.20
2019-03-18T03:54:48.389Z,18.20
2019-03-18T03:55:48.350Z,18.21
2019-03-18T03:56:48.336Z,18.21
2019-03-18T03:57:48.326Z,18.21
2019-03-18T03:58:48.318Z,18.21
2019-03-18T03:59:48.312Z,18.21
2019-03-18T04:00:48.324Z,18.20
2019-03-18T04:01:48.298Z,18.21
2019-03-18T04:02:48.290Z,18.21
2019-03-18T04:03:48.304Z,18.20
2019-03-18T04:04:48.254Z,18.21
2019-03-18T04:05:48.241Z,18.21
2019-03-18T04:06:48.226Z,18.20
2019-03-18T04:07:48.220Z,18.20
2019-03-18T04:08:48.209Z,18.21
2019-03-18T04:09:48.314Z,18.20
2019-03-18T04:10:48.185Z,18.20
2019-03-18T04:11:48.189Z,18.20
2019-03-18T04:12:48.160Z,18.21
2019-03-18T04:13:48.244Z,18.21
2019-03-18T04:14:48.143Z,18.21
2019-03-18T04:15:48.155Z,18.20
2019-03-18T04:17:00.617Z,18.18
2019-03-18T04:17:49.119Z,18.20
2019-03-18T04:18:48.146Z,18.21
2019-03-18T04:19:48.091Z,18.21
2019-03-18T04:20:48.079Z,18.20
2019-03-18T04:21:50.572Z,18.20
2019-03-18T04:22:48.057Z,18.20
2019-03-18T04:23:48.044Z,18.20
2019-03-18T04:24:48.315Z,18.20
2019-03-18T04:25:48.030Z,18.20
2019-03-18T04:26:48.013Z,18.21
2019-03-18T04:27:48.002Z,18.18
2019-03-18T04:28:47.995Z,18.20
2019-03-18T04:29:48.021Z,18.20
2019-03-18T04:30:48.264Z,18.20
2019-03-18T04:31:47.959Z,18.20
2019-03-18T04:32:47.945Z,18.20
2019-03-18T04:33:47.997Z,18.20
2019-03-18T04:34:47.939Z,18.20
2019-03-18T04:35:47.925Z,18.20
2019-03-18T04:36:48.198Z,18.20
2019-03-18T04:37:47.956Z,18.20
2019-03-18T04:38:47.883Z,18.20
2019-03-18T04:39:47.877Z,18.20
2019-03-18T04:40:47.861Z,18.20
2019-03-18T04:41:47.868Z,18.18
2019-03-18T04:42:47.866Z,18.20
2019-03-18T04:43:47.825Z,18.18
2019-03-18T04:44:47.847Z,18.20
2019-03-18T04:45:47.811Z,18.20
2019-03-18T04:46:47.797Z,18.20
2019-03-18T04:47:47.826Z,18.18
2019-03-18T04:48:47.774Z,18.18
2019-03-18T04:49:47.762Z,18.18
2019-03-18T04:50:47.755Z,18.18
2019-03-18T04:51:47.744Z,18.18
2019-03-18T04:52:47.764Z,18.18
2019-03-18T04:53:47.720Z,18.20
2019-03-18T04:54:47.715Z,18.20
2019-03-18T04:55:47.700Z,18.18
2019-03-18T04:56:47.700Z,18.18
2019-03-18T04:57:47.682Z,18.20
2019-03-18T04:58:47.694Z,18.18
2019-03-18T04:59:47.661Z,18.20
2019-03-18T05:00:47.646Z,18.18
2019-03-18T05:01:47.636Z,18.18
2019-03-18T05:02:47.629Z,18.17
2019-03-18T05:03:47.644Z,18.18
2019-03-18T05:04:47.609Z,18.18
2019-03-18T05:05:47.596Z,18.17
2019-03-18T05:06:47.609Z,18.18
2019-03-18T05:07:47.594Z,18.18
2019-03-18T05:08:47.558Z,18.18
2019-03-18T05:09:47.547Z,18.18
2019-03-18T05:10:47.545Z,18.18
2019-03-18T05:11:47.534Z,18.18
2019-03-18T05:12:47.545Z,18.17
2019-03-18T05:13:47.618Z,18.18
2019-03-18T05:14:47.495Z,18.18
2019-03-18T05:15:47.517Z,18.18
2019-03-18T05:16:47.472Z,18.17
2019-03-18T05:17:47.515Z,18.18
2019-03-18T05:18:47.467Z,18.18
2019-03-18T05:19:47.452Z,18.18
2019-03-18T05:20:47.448Z,18.17
2019-03-18T05:21:47.421Z,18.17
2019-03-18T05:22:47.410Z,18.17
2019-03-18T05:23:47.428Z,18.17
2019-03-18T05:24:47.392Z,18.17
2019-03-18T05:25:47.419Z,18.17
2019-03-18T05:26:47.373Z,18.17
2019-03-18T05:27:47.361Z,18.17
2019-03-18T05:28:47.354Z,18.17
2019-03-18T05:29:47.340Z,18.17
2019-03-18T05:30:47.341Z,18.18
2019-03-18T05:31:47.346Z,18.17
2019-03-18T05:32:47.306Z,18.17
2019-03-18T05:33:47.292Z,18.17
2019-03-18T05:34:47.313Z,18.17
2019-03-18T05:35:47.271Z,18.17
2019-03-18T05:36:47.265Z,18.18
2019-03-18T05:37:47.275Z,18.15
2019-03-18T05:38:47.241Z,18.15
2019-03-18T05:39:47.231Z,18.17
2019-03-18T05:40:47.287Z,18.18
2019-03-18T05:41:47.206Z,18.17
2019-03-18T05:42:47.201Z,18.17
2019-03-18T05:43:47.190Z,18.15
2019-03-18T05:44:47.181Z,18.17
2019-03-18T05:45:47.165Z,18.15
2019-03-18T05:46:47.201Z,18.15
2019-03-18T05:47:47.154Z,18.17
2019-03-18T05:48:47.134Z,18.15
2019-03-18T05:49:47.121Z,18.17
2019-03-18T05:50:47.117Z,18.17
2019-03-18T05:51:47.098Z,18.17
2019-03-18T05:52:47.121Z,18.18
2019-03-18T05:53:47.083Z,18.17
2019-03-18T05:54:47.066Z,18.17
2019-03-18T05:55:47.060Z,18.15
2019-03-18T05:56:47.070Z,18.15
2019-03-18T05:57:47.060Z,18.15
2019-03-18T05:58:47.029Z,18.15
2019-03-18T05:59:47.015Z,18.15
2019-03-18T06:00:47.004Z,18.17
2019-03-18T06:01:46.992Z,18.14
2019-03-18T06:02:47.430Z,18.15
2019-03-18T06:03:47.259Z,18.17
2019-03-18T06:04:46.966Z,18.15
2019-03-18T06:05:46.948Z,18.15
2019-03-18T06:06:46.935Z,18.15
2019-03-18T06:07:46.926Z,18.15
2019-03-18T06:08:46.941Z,18.14
2019-03-18T06:09:46.931Z,18.15
2019-03-18T06:10:46.896Z,18.17
2019-03-18T06:11:46.885Z,18.15
2019-03-18T06:12:46.876Z,18.15
2019-03-18T06:13:46.865Z,18.17
2019-03-18T06:14:46.854Z,18.17
2019-03-18T06:15:46.890Z,18.15
2019-03-18T06:16:46.849Z,18.15
2019-03-18T06:17:52.098Z,18.17
2019-03-18T06:18:47.805Z,18.15
2019-03-18T06:19:46.801Z,18.18
2019-03-18T06:20:46.790Z,18.17
2019-03-18T06:21:46.804Z,18.17
2019-03-18T06:22:46.769Z,18.18
2019-03-18T06:23:46.753Z,18.15
2019-03-18T06:24:46.749Z,18.17
2019-03-18T06:25:46.816Z,18.17
2019-03-18T06:26:46.783Z,18.15
2019-03-18T06:27:46.716Z,18.17
2019-03-18T06:28:46.703Z,18.17
2019-03-18T06:29:46.687Z,18.18
2019-03-18T06:30:46.680Z,18.15
2019-03-18T06:31:46.667Z,18.15
2019-03-18T06:32:46.688Z,18.15
2019-03-18T06:33:46.646Z,18.17
2019-03-18T06:34:46.638Z,18.17
2019-03-18T06:35:46.623Z,18.17
2019-03-18T06:36:46.612Z,18.17
2019-03-18T06:37:46.895Z,18.17
2019-03-18T06:38:46.597Z,18.14
2019-03-18T06:39:46.601Z,18.15
2019-03-18T06:40:46.575Z,18.17
2019-03-18T06:41:46.557Z,18.15
2019-03-18T06:42:46.550Z,18.17
2019-03-18T06:43:46.570Z,18.17
2019-03-18T06:44:46.532Z,18.15
2019-03-18T06:45:46.519Z,18.17
2019-03-18T06:46:46.525Z,18.15
2019-03-18T06:47:46.499Z,18.17
2019-03-18T06:48:46.776Z,18.15
2019-03-18T06:49:46.493Z,18.15
2019-03-18T06:50:46.467Z,18.17
2019-03-18T06:51:46.454Z,18.14
2019-03-18T06:52:46.443Z,18.15
2019-03-18T06:53:46.435Z,18.15
2019-03-18T06:54:46.451Z,18.15
2019-03-18T06:55:46.412Z,18.15
2019-03-18T06:56:46.398Z,18.15
2019-03-18T06:57:46.391Z,18.15
2019-03-18T06:58:46.379Z,18.17
2019-03-18T06:59:46.366Z,18.17
2019-03-18T07:00:46.383Z,18.17
2019-03-18T07:01:46.348Z,18.17
2019-03-18T07:02:46.341Z,18.17
2019-03-18T07:03:46.327Z,18.17
2019-03-18T07:04:46.310Z,18.18
2019-03-18T07:05:46.403Z,18.18
2019-03-18T07:06:46.594Z,18.15
2019-03-18T07:07:46.278Z,18.17
2019-03-18T07:08:46.269Z,18.17
2019-03-18T07:09:46.257Z,18.17
2019-03-18T07:10:46.256Z,18.15
2019-03-18T07:11:46.257Z,18.18
2019-03-18T07:12:46.271Z,18.17
2019-03-18T07:13:46.225Z,18.17
2019-03-18T07:14:46.209Z,18.17
2019-03-18T07:15:46.197Z,18.18
2019-03-18T07:16:46.182Z,18.18
2019-03-18T07:17:46.220Z,18.18
2019-03-18T07:18:46.162Z,18.18
2019-03-18T07:19:46.146Z,18.20
2019-03-18T07:20:46.143Z,18.21
2019-03-18T07:21:46.125Z,18.20
2019-03-18T07:22:46.123Z,18.21
2019-03-18T07:23:46.140Z,18.20
2019-03-18T07:24:46.093Z,18.20
2019-03-18T07:25:46.089Z,18.21
2019-03-18T07:26:46.073Z,18.21
2019-03-18T07:27:46.063Z,18.20
2019-03-18T07:28:46.080Z,18.21
2019-03-18T07:29:46.041Z,18.20
2019-03-18T07:30:46.034Z,18.20
2019-03-18T07:31:46.018Z,18.21
2019-03-18T07:32:46.013Z,18.20
2019-03-18T07:33:46.301Z,18.21
2019-03-18T07:34:45.987Z,18.20
2019-03-18T07:35:45.999Z,18.20
2019-03-18T07:36:45.967Z,18.21
2019-03-18T07:37:45.958Z,18.21
2019-03-18T07:38:45.949Z,18.20
2019-03-18T07:39:45.964Z,18.21
2019-03-18T07:40:45.921Z,18.21
2019-03-18T07:41:45.920Z,18.21
2019-03-18T07:42:45.930Z,18.21
2019-03-18T07:43:45.892Z,18.21
2019-03-18T07:44:45.879Z,18.23
2019-03-18T07:45:45.885Z,18.23
2019-03-18T07:46:45.891Z,18.23
2019-03-18T07:47:45.844Z,18.23
2019-03-18T07:48:45.837Z,18.23
2019-03-18T07:49:45.906Z,18.23
2019-03-18T07:50:45.818Z,18.21
2019-03-18T07:51:45.810Z,18.21
2019-03-18T07:52:45.823Z,18.23
2019-03-18T07:53:45.779Z,18.23
2019-03-18T07:54:45.771Z,18.23
2019-03-18T07:55:45.761Z,18.21
2019-03-18T07:56:45.753Z,18.21
2019-03-18T07:57:45.744Z,18.25
2019-03-18T07:58:45.770Z,18.25
2019-03-18T07:59:45.721Z,18.27
2019-03-18T08:00:45.817Z,18.29
2019-03-18T08:01:45.697Z,18.32
2019-03-18T08:02:45.712Z,18.32
2019-03-18T08:03:45.679Z,18.32
2019-03-18T08:04:45.665Z,18.32
2019-03-18T08:05:45.651Z,18.33
2019-03-18T08:06:45.671Z,18.33
2019-03-18T08:07:45.636Z,18.35
2019-03-18T08:08:45.630Z,18.35
2019-03-18T08:09:45.722Z,18.33
2019-03-18T08:10:45.662Z,18.33
2019-03-18T08:11:45.590Z,18.35
2019-03-18T08:12:45.578Z,18.32
2019-03-18T08:13:45.570Z,18.32
2019-03-18T08:14:45.555Z,18.32
2019-03-18T08:15:45.571Z,18.32
2019-03-18T08:16:45.534Z,18.32
2019-03-18T08:17:45.525Z,18.30
2019-03-18T08:18:45.513Z,18.30
2019-03-18T08:19:45.789Z,18.30
2019-03-18T08:20:45.490Z,18.32
2019-03-18T08:21:45.481Z,18.32
2019-03-18T08:22:45.473Z,18.32
2019-03-18T08:23:45.463Z,18.35
2019-03-18T08:24:45.451Z,18.35
2019-03-18T08:25:45.468Z,18.33
2019-03-18T08:26:45.484Z,18.36
2019-03-18T08:27:45.414Z,18.35
2019-03-18T08:28:45.406Z,18.35
2019-03-18T08:29:45.403Z,18.37
2019-03-18T08:30:45.387Z,18.37
2019-03-18T08:31:45.384Z,18.39
2019-03-18T08:32:45.396Z,18.39
2019-03-18T08:33:45.352Z,18.41
2019-03-18T08:34:45.338Z,18.41
2019-03-18T08:35:45.325Z,18.42
2019-03-18T08:36:45.320Z,18.42
2019-03-18T08:37:45.305Z,18.44
2019-03-18T08:38:45.337Z,18.44
2019-03-18T08:39:45.285Z,18.45
2019-03-18T08:40:45.277Z,18.45
2019-03-18T08:41:45.285Z,18.47
2019-03-18T08:42:45.256Z,18.47
2019-03-18T08:43:45.245Z,18.48
2019-03-18T08:44:45.261Z,18.47
2019-03-18T08:45:45.226Z,18.48
2019-03-18T08:46:45.212Z,18.48
2019-03-18T08:47:45.202Z,18.48
2019-03-18T08:48:55.350Z,18.50
2019-03-18T08:49:46.204Z,18.48
2019-03-18T08:50:45.172Z,18.50
2019-03-18T08:51:45.159Z,18.48
2019-03-18T08:52:45.179Z,18.48
2019-03-18T08:53:45.132Z,18.48
2019-03-18T08:54:45.137Z,18.48
2019-03-18T08:55:45.139Z,18.48
2019-03-18T08:56:45.100Z,18.48
2019-03-18T08:57:45.100Z,18.48
2019-03-18T08:58:45.086Z,18.48
2019-03-18T08:59:45.103Z,18.47
2019-03-18T09:00:45.080Z,18.48
2019-03-18T09:01:45.083Z,18.47
2019-03-18T09:02:45.036Z,18.48
2019-03-18T09:03:45.025Z,18.48
2019-03-18T09:04:45.062Z,18.47
2019-03-18T09:05:45.014Z,18.48
2019-03-18T09:06:45.116Z,18.48
2019-03-18T09:07:44.988Z,18.47
2019-03-18T09:08:44.971Z,18.50
2019-03-18T09:09:44.964Z,18.48
2019-03-18T09:10:44.996Z,18.48
2019-03-18T09:11:44.944Z,18.48
2019-03-18T09:12:44.934Z,18.50
2019-03-18T09:13:44.921Z,18.50
2019-03-18T09:14:44.908Z,18.48
2019-03-18T09:15:44.899Z,18.50
2019-03-18T09:16:44.918Z,18.51
2019-03-18T09:17:44.879Z,18.50
2019-03-18T09:18:44.870Z,18.50
2019-03-18T09:19:44.861Z,18.50
2019-03-18T09:20:44.875Z,18.48
2019-03-18T09:21:44.834Z,18.51
2019-03-18T09:22:44.851Z,18.50
2019-03-18T09:23:44.815Z,18.51
2019-03-18T09:24:44.805Z,18.48
2019-03-18T09:25:44.789Z,18.50
2019-03-18T09:26:44.788Z,18.50
2019-03-18T09:27:44.814Z,18.48
2019-03-18T09:28:44.760Z,18.48
2019-03-18T09:29:44.748Z,18.48
2019-03-18T09:30:44.741Z,18.48
2019-03-18T09:31:44.733Z,18.47
2019-03-18T09:32:44.719Z,18.48
2019-03-18T09:33:44.901Z,18.48
2019-03-18T09:34:44.697Z,18.48
2019-03-18T09:35:44.686Z,18.48
2019-03-18T09:36:44.683Z,18.47
2019-03-18T09:37:44.685Z,18.47
2019-03-18T09:38:44.651Z,18.47
2019-03-18T09:39:44.677Z,18.47
2019-03-18T09:40:44.632Z,18.47
2019-03-18T09:41:44.624Z,18.47
2019-03-18T09:42:44.611Z,18.47
2019-03-18T09:43:44.605Z,18.47
2019-03-18T09:44:44.592Z,18.47
2019-03-18T09:45:44.605Z,18.48
2019-03-18T09:46:44.568Z,18.47
2019-03-18T09:47:44.556Z,18.47
2019-03-18T09:48:44.542Z,18.47
2019-03-18T09:49:44.534Z,18.47
2019-03-18T09:50:44.573Z,18.47
2019-03-18T09:51:44.508Z,18.47
2019-03-18T09:52:44.503Z,18.47
2019-03-18T09:53:44.496Z,18.47
2019-03-18T09:54:44.479Z,18.47
2019-03-18T09:55:44.468Z,18.48
2019-03-18T09:56:44.483Z,18.47
2019-03-18T09:57:44.447Z,18.47
2019-03-18T09:58:44.435Z,18.47
2019-03-18T09:59:44.455Z,18.48
2019-03-18T10:00:44.415Z,18.47
2019-03-18T10:01:44.659Z,18.50
2019-03-18T10:02:44.396Z,18.48
2019-03-18T10:03:44.387Z,18.47
2019-03-18T10:04:44.395Z,18.48
2019-03-18T10:05:44.364Z,18.48
2019-03-18T10:06:44.353Z,18.48
2019-03-18T10:07:44.338Z,18.48
2019-03-18T10:08:44.361Z,18.47
2019-03-18T10:09:44.380Z,18.47
2019-03-18T10:10:44.309Z,18.47
2019-03-18T10:11:44.322Z,18.47
2019-03-18T10:12:44.287Z,18.50
2019-03-18T10:13:44.277Z,18.51
2019-03-18T10:14:44.269Z,18.51
2019-03-18T10:15:44.254Z,18.52
2019-03-18T10:16:44.245Z,18.52
2019-03-18T10:17:44.264Z,18.55
2019-03-18T10:18:44.219Z,18.55
2019-03-18T10:19:44.207Z,18.55
2019-03-18T10:20:44.201Z,18.57
2019-03-18T10:21:44.192Z,18.57
2019-03-18T10:22:44.465Z,18.58
2019-03-18T10:23:44.172Z,18.58
2019-03-18T10:24:44.151Z,18.58
2019-03-18T10:25:44.141Z,18.62
2019-03-18T10:26:44.139Z,18.63
2019-03-18T10:27:44.122Z,18.67
2019-03-18T10:28:44.145Z,18.69
2019-03-18T10:29:44.102Z,18.73
2019-03-18T10:30:44.094Z,18.78
2019-03-18T10:31:44.082Z,18.81
2019-03-18T10:32:44.069Z,18.84
2019-03-18T10:33:45.063Z,18.88
2019-03-18T10:34:44.043Z,18.90
2019-03-18T10:35:44.040Z,18.94
2019-03-18T10:36:44.023Z,18.98
2019-03-18T10:37:44.016Z,19.00
2019-03-18T10:38:44.006Z,19.06
2019-03-18T10:39:44.024Z,19.10
2019-03-18T10:40:43.979Z,19.13
2019-03-18T10:41:43.972Z,19.16
2019-03-18T10:42:43.959Z,19.19
2019-03-18T10:43:43.946Z,19.22
2019-03-18T10:44:44.004Z,19.25
2019-03-18T10:45:43.932Z,19.29
2019-03-18T10:46:43.943Z,19.29
2019-03-18T10:47:43.907Z,19.32
2019-03-18T10:48:43.895Z,19.33
2019-03-18T10:49:46.322Z,19.37
2019-03-18T10:50:43.914Z,19.39
2019-03-18T10:51:43.865Z,19.41
2019-03-18T10:52:43.891Z,19.43
2019-03-18T10:53:44.695Z,19.44
2019-03-18T10:54:43.844Z,19.44
2019-03-18T10:55:43.824Z,19.46
2019-03-18T10:56:43.842Z,19.44
2019-03-18T10:57:43.809Z,19.47
2019-03-18T10:58:43.790Z,19.44
2019-03-18T10:59:43.786Z,19.47
2019-03-18T11:00:43.772Z,19.48
2019-03-18T11:01:43.761Z,19.48
2019-03-18T11:02:45.323Z,19.48
2019-03-18T11:03:43.732Z,19.50
2019-03-18T11:04:43.734Z,19.50
2019-03-18T11:05:43.714Z,19.48
2019-03-18T11:06:43.703Z,19.50
2019-03-18T11:07:43.732Z,19.50
2019-03-18T11:08:43.680Z,19.50
2019-03-18T11:09:43.707Z,19.50
2019-03-18T11:10:43.668Z,19.51
2019-03-18T11:11:43.655Z,19.50
2019-03-18T11:12:43.645Z,19.50
2019-03-18T11:13:43.663Z,19.50
2019-03-18T11:14:43.618Z,19.50
2019-03-18T11:15:43.618Z,19.50
2019-03-18T11:16:43.620Z,19.50
2019-03-18T11:17:43.617Z,19.50
2019-03-18T11:18:43.599Z,19.50
2019-03-18T11:19:43.603Z,19.50
2019-03-18T11:20:43.616Z,19.48
2019-03-18T11:21:43.548Z,19.47
2019-03-18T11:22:43.542Z,19.47
2019-03-18T11:23:43.520Z,19.46
2019-03-18T11:24:43.512Z,19.46
2019-03-18T11:25:43.529Z,19.44
2019-03-18T11:26:43.487Z,19.44
2019-03-18T11:27:43.492Z,19.44
2019-03-18T11:28:43.467Z,19.44
2019-03-18T11:29:43.469Z,19.43
2019-03-18T11:30:43.447Z,19.44
2019-03-18T11:31:43.489Z,19.43
2019-03-18T11:32:43.430Z,19.43
2019-03-18T11:33:43.419Z,19.40
2019-03-18T11:34:43.406Z,19.40
2019-03-18T11:35:43.395Z,19.40
2019-03-18T11:36:43.384Z,19.39
2019-03-18T11:37:43.396Z,19.39
2019-03-18T11:38:43.362Z,19.36
2019-03-18T11:39:43.353Z,19.37
2019-03-18T11:40:43.343Z,19.37
2019-03-18T11:41:43.327Z,19.36
2019-03-18T11:42:43.371Z,19.33
2019-03-18T11:43:43.324Z,19.33
2019-03-18T11:44:43.295Z,19.32
2019-03-18T11:45:43.287Z,19.31
2019-03-18T11:46:43.283Z,19.32
2019-03-18T11:47:43.267Z,19.29
2019-03-18T11:48:43.283Z,19.29
2019-03-18T11:49:43.247Z,19.29
2019-03-18T11:50:43.230Z,19.28
2019-03-18T11:51:43.220Z,19.26
2019-03-18T11:52:43.215Z,19.26
2019-03-18T11:53:43.203Z,19.28
2019-03-18T11:54:43.223Z,19.25
2019-03-18T11:55:43.186Z,19.25
2019-03-18T11:56:43.170Z,19.25
2019-03-18T11:57:43.158Z,19.23
2019-03-18T11:58:43.150Z,19.22
2019-03-18T11:59:43.141Z,19.23
2019-03-18T12:00:43.173Z,19.22
2019-03-18T12:01:43.118Z,19.21
2019-03-18T12:02:43.108Z,19.19
2019-03-18T12:03:43.096Z,19.19
2019-03-18T12:04:43.090Z,19.21
2019-03-18T12:05:43.071Z,19.19
2019-03-18T12:06:43.092Z,19.19
2019-03-18T12:07:43.058Z,19.19
2019-03-18T12:08:43.041Z,19.18
2019-03-18T12:09:43.030Z,19.19
2019-03-18T12:10:43.020Z,19.18
2019-03-18T12:11:43.056Z,19.16
2019-03-18T12:12:43.001Z,19.18
2019-03-18T12:13:42.994Z,19.18
2019-03-18T12:14:42.983Z,19.16
2019-03-18T12:15:42.968Z,19.16
2019-03-18T12:16:42.960Z,19.18
2019-03-18T12:17:42.974Z,19.19
2019-03-18T12:18:42.938Z,19.19
2019-03-18T12:19:42.923Z,19.19
2019-03-18T12:20:42.956Z,19.21
2019-03-18T12:21:42.905Z,19.21
2019-03-18T12:22:42.892Z,19.19
2019-03-18T12:23:42.884Z,19.21
2019-03-18T12:24:42.871Z,19.21
2019-03-18T12:25:42.867Z,19.21
2019-03-18T12:26:42.878Z,19.22
2019-03-18T12:27:42.845Z,19.23
2019-03-18T12:28:42.827Z,19.23
2019-03-18T12:29:42.814Z,19.23
2019-03-18T12:30:42.840Z,19.25
2019-03-18T12:31:42.798Z,19.26
2019-03-18T12:32:42.782Z,19.26
2019-03-18T12:33:42.779Z,19.28
2019-03-18T12:34:42.760Z,19.28
2019-03-18T12:35:42.786Z,19.28
2019-03-18T12:36:42.750Z,19.28
2019-03-18T12:37:42.734Z,19.28
2019-03-18T12:38:42.725Z,19.28
2019-03-18T12:39:42.739Z,19.28
2019-03-18T12:40:42.734Z,19.29
2019-03-18T12:41:42.696Z,19.29
2019-03-18T12:42:42.685Z,19.31
2019-03-18T12:43:42.672Z,19.29
2019-03-18T12:44:42.658Z,19.32
2019-03-18T12:45:42.651Z,19.33
2019-03-18T12:46:42.776Z,19.32
2019-03-18T12:47:42.630Z,19.36
2019-03-18T12:48:42.612Z,19.36
2019-03-18T12:49:42.612Z,19.36
2019-03-18T12:50:55.293Z,19.37
2019-03-18T12:51:43.614Z,19.36
2019-03-18T12:52:42.573Z,19.37